sensor_id;sensor_type;location;lat;lon;timestamp;P1;durP1;ratioP1;P2;durP2;ratioP2
76566;SDS011;65428;53.194;6.132;2024-02-21T00:02:09;21.60;;;3.72;;
76566;SDS011;65428;53.194;6.132;2024-02-21T00:04:34;18.07;;;3.20;;
76566;SDS011;65428;53.194;6.132;2024-02-21T00:07:01;20.10;;;3.20;;
76566;SDS011;65428;53.194;6.132;2024-02-21T00:09:27;19.42;;;3.65;;
76566;SDS011;65428;53.194;6.132;2024-02-21T00:11:53;22.00;;;4.10;;
76566;SDS011;65428;53.194;6.132;2024-02-21T00:14:19;22.48;;;3.63;;
76566;SDS011;65428;53.194;6.132;2024-02-21T00:16:44;25.55;;;4.15;;
76566;SDS011;65428;53.194;6.132;2024-02-21T00:19:10;27.10;;;3.70;;
76566;SDS011;65428;53.194;6.132;2024-02-21T00:21:36;23.10;;;3.88;;
76566;SDS011;65428;53.194;6.132;2024-02-21T00:24:01;23.33;;;3.58;;
76566;SDS011;65428;53.194;6.132;2024-02-21T00:26:27;20.37;;;3.43;;
76566;SDS011;65428;53.194;6.132;2024-02-21T00:28:53;25.80;;;4.63;;
76566;SDS011;65428;53.194;6.132;2024-02-21T00:31:18;23.05;;;4.45;;
76566;SDS011;65428;53.194;6.132;2024-02-21T00:33:44;22.40;;;4.37;;
76566;SDS011;65428;53.194;6.132;2024-02-21T00:36:10;24.80;;;4.47;;
76566;SDS011;65428;53.194;6.132;2024-02-21T00:38:35;25.33;;;4.72;;
76566;SDS011;65428;53.194;6.132;2024-02-21T00:41:01;23.40;;;4.73;;
76566;SDS011;65428;53.194;6.132;2024-02-21T00:43:26;24.52;;;4.47;;
76566;SDS011;65428;53.194;6.132;2024-02-21T00:45:52;25.83;;;4.32;;
76566;SDS011;65428;53.194;6.132;2024-02-21T00:48:18;23.27;;;4.60;;
76566;SDS011;65428;53.194;6.132;2024-02-21T00:50:44;25.37;;;4.90;;
76566;SDS011;65428;53.194;6.132;2024-02-21T00:53:09;25.63;;;4.82;;
76566;SDS011;65428;53.194;6.132;2024-02-21T00:55:35;29.35;;;4.93;;
76566;SDS011;65428;53.194;6.132;2024-02-21T00:58:01;25.87;;;5.10;;
76566;SDS011;65428;53.194;6.132;2024-02-21T01:00:27;25.30;;;4.87;;
76566;SDS011;65428;53.194;6.132;2024-02-21T01:02:52;27.70;;;5.10;;
76566;SDS011;65428;53.194;6.132;2024-02-21T01:05:18;27.77;;;5.55;;
76566;SDS011;65428;53.194;6.132;2024-02-21T01:07:45;30.70;;;6.63;;
76566;SDS011;65428;53.194;6.132;2024-02-21T01:10:11;27.63;;;6.10;;
76566;SDS011;65428;53.194;6.132;2024-02-21T01:12:36;29.30;;;6.17;;
76566;SDS011;65428;53.194;6.132;2024-02-21T01:15:02;27.88;;;6.70;;
76566;SDS011;65428;53.194;6.132;2024-02-21T01:17:28;28.40;;;6.53;;
76566;SDS011;65428;53.194;6.132;2024-02-21T01:19:54;30.00;;;7.25;;
76566;SDS011;65428;53.194;6.132;2024-02-21T01:22:19;32.50;;;7.13;;
76566;SDS011;65428;53.194;6.132;2024-02-21T01:24:45;30.40;;;7.97;;
76566;SDS011;65428;53.194;6.132;2024-02-21T01:27:11;33.30;;;8.10;;
76566;SDS011;65428;53.194;6.132;2024-02-21T01:29:36;31.08;;;8.73;;
76566;SDS011;65428;53.194;6.132;2024-02-21T01:32:02;29.70;;;9.07;;
76566;SDS011;65428;53.194;6.132;2024-02-21T01:34:28;27.27;;;9.60;;
76566;SDS011;65428;53.194;6.132;2024-02-21T01:36:54;29.88;;;9.50;;
76566;SDS011;65428;53.194;6.132;2024-02-21T01:39:19;31.10;;;10.65;;
76566;SDS011;65428;53.194;6.132;2024-02-21T01:41:45;31.70;;;10.73;;
76566;SDS011;65428;53.194;6.132;2024-02-21T01:44:10;32.53;;;11.70;;
76566;SDS011;65428;53.194;6.132;2024-02-21T01:46:36;36.67;;;11.65;;
76566;SDS011;65428;53.194;6.132;2024-02-21T01:49:02;32.33;;;11.20;;
76566;SDS011;65428;53.194;6.132;2024-02-21T01:51:28;40.67;;;12.50;;
76566;SDS011;65428;53.194;6.132;2024-02-21T01:53:54;34.63;;;11.77;;
76566;SDS011;65428;53.194;6.132;2024-02-21T01:56:21;37.72;;;11.57;;
76566;SDS011;65428;53.194;6.132;2024-02-21T01:58:48;33.38;;;10.57;;
76566;SDS011;65428;53.194;6.132;2024-02-21T02:01:13;30.45;;;10.60;;
76566;SDS011;65428;53.194;6.132;2024-02-21T02:03:39;34.00;;;10.10;;
76566;SDS011;65428;53.194;6.132;2024-02-21T02:06:06;31.10;;;9.93;;
76566;SDS011;65428;53.194;6.132;2024-02-21T02:08:32;32.07;;;9.80;;
76566;SDS011;65428;53.194;6.132;2024-02-21T02:10:58;35.97;;;11.02;;
76566;SDS011;65428;53.194;6.132;2024-02-21T02:13:24;31.47;;;9.90;;
76566;SDS011;65428;53.194;6.132;2024-02-21T02:15:50;32.23;;;9.20;;
76566;SDS011;65428;53.194;6.132;2024-02-21T02:18:17;36.70;;;9.38;;
76566;SDS011;65428;53.194;6.132;2024-02-21T02:20:44;34.80;;;9.48;;
76566;SDS011;65428;53.194;6.132;2024-02-21T02:25:54;34.23;;;9.20;;
76566;SDS011;65428;53.194;6.132;2024-02-21T02:28:21;35.55;;;8.55;;
76566;SDS011;65428;53.194;6.132;2024-02-21T02:30:47;35.33;;;9.15;;
76566;SDS011;65428;53.194;6.132;2024-02-21T02:33:13;37.65;;;9.32;;
76566;SDS011;65428;53.194;6.132;2024-02-21T02:35:39;36.78;;;8.95;;
76566;SDS011;65428;53.194;6.132;2024-02-21T02:38:05;38.58;;;9.43;;
76566;SDS011;65428;53.194;6.132;2024-02-21T02:40:33;35.00;;;8.68;;
76566;SDS011;65428;53.194;6.132;2024-02-21T02:42:59;37.03;;;8.35;;
76566;SDS011;65428;53.194;6.132;2024-02-21T02:45:25;38.17;;;9.00;;
76566;SDS011;65428;53.194;6.132;2024-02-21T02:47:54;34.03;;;8.00;;
76566;SDS011;65428;53.194;6.132;2024-02-21T02:50:22;43.72;;;8.90;;
76566;SDS011;65428;53.194;6.132;2024-02-21T02:52:48;34.72;;;7.93;;
76566;SDS011;65428;53.194;6.132;2024-02-21T02:55:14;33.47;;;7.45;;
76566;SDS011;65428;53.194;6.132;2024-02-21T02:57:39;33.80;;;7.60;;
76566;SDS011;65428;53.194;6.132;2024-02-21T03:00:07;35.67;;;8.52;;
76566;SDS011;65428;53.194;6.132;2024-02-21T03:02:34;34.78;;;7.68;;
76566;SDS011;65428;53.194;6.132;2024-02-21T03:05:00;36.17;;;8.00;;
76566;SDS011;65428;53.194;6.132;2024-02-21T03:07:26;32.08;;;8.15;;
76566;SDS011;65428;53.194;6.132;2024-02-21T03:09:51;35.83;;;8.00;;
76566;SDS011;65428;53.194;6.132;2024-02-21T03:12:18;36.97;;;8.02;;
76566;SDS011;65428;53.194;6.132;2024-02-21T03:14:52;33.30;;;7.53;;
76566;SDS011;65428;53.194;6.132;2024-02-21T03:17:18;32.47;;;7.40;;
76566;SDS011;65428;53.194;6.132;2024-02-21T03:19:43;34.30;;;7.88;;
76566;SDS011;65428;53.194;6.132;2024-02-21T03:22:09;35.33;;;7.63;;
76566;SDS011;65428;53.194;6.132;2024-02-21T03:24:35;32.83;;;8.18;;
76566;SDS011;65428;53.194;6.132;2024-02-21T03:27:00;38.22;;;8.40;;
76566;SDS011;65428;53.194;6.132;2024-02-21T03:29:26;34.50;;;7.97;;
76566;SDS011;65428;53.194;6.132;2024-02-21T03:31:52;34.38;;;7.97;;
76566;SDS011;65428;53.194;6.132;2024-02-21T03:34:17;34.53;;;8.63;;
76566;SDS011;65428;53.194;6.132;2024-02-21T03:36:43;32.87;;;8.10;;
76566;SDS011;65428;53.194;6.132;2024-02-21T03:39:08;35.28;;;8.40;;
76566;SDS011;65428;53.194;6.132;2024-02-21T03:41:34;37.27;;;8.97;;
76566;SDS011;65428;53.194;6.132;2024-02-21T03:44:00;33.83;;;8.23;;
76566;SDS011;65428;53.194;6.132;2024-02-21T03:46:26;31.50;;;8.93;;
76566;SDS011;65428;53.194;6.132;2024-02-21T03:48:52;33.30;;;8.48;;
76566;SDS011;65428;53.194;6.132;2024-02-21T03:51:18;35.90;;;9.00;;
76566;SDS011;65428;53.194;6.132;2024-02-21T03:53:43;34.90;;;8.77;;
76566;SDS011;65428;53.194;6.132;2024-02-21T03:56:09;32.17;;;8.20;;
76566;SDS011;65428;53.194;6.132;2024-02-21T03:58:34;32.77;;;7.97;;
76566;SDS011;65428;53.194;6.132;2024-02-21T04:01:00;33.50;;;8.00;;
76566;SDS011;65428;53.194;6.132;2024-02-21T04:03:26;28.77;;;7.47;;
76566;SDS011;65428;53.194;6.132;2024-02-21T04:05:52;31.92;;;6.85;;
76566;SDS011;65428;53.194;6.132;2024-02-21T04:08:18;35.33;;;6.70;;
76566;SDS011;65428;53.194;6.132;2024-02-21T04:10:44;33.77;;;7.40;;
76566;SDS011;65428;53.194;6.132;2024-02-21T04:13:09;31.33;;;7.27;;
76566;SDS011;65428;53.194;6.132;2024-02-21T04:15:35;34.42;;;7.22;;
76566;SDS011;65428;53.194;6.132;2024-02-21T04:18:01;29.63;;;7.20;;
76566;SDS011;65428;53.194;6.132;2024-02-21T04:20:28;28.58;;;6.60;;
76566;SDS011;65428;53.194;6.132;2024-02-21T04:22:55;29.38;;;7.28;;
76566;SDS011;65428;53.194;6.132;2024-02-21T04:25:20;27.87;;;6.50;;
76566;SDS011;65428;53.194;6.132;2024-02-21T04:27:46;29.40;;;6.10;;
76566;SDS011;65428;53.194;6.132;2024-02-21T04:30:12;35.47;;;6.80;;
76566;SDS011;65428;53.194;6.132;2024-02-21T04:32:38;29.65;;;6.72;;
76566;SDS011;65428;53.194;6.132;2024-02-21T04:35:04;30.93;;;6.47;;
76566;SDS011;65428;53.194;6.132;2024-02-21T04:37:30;33.13;;;7.37;;
76566;SDS011;65428;53.194;6.132;2024-02-21T04:39:56;33.43;;;6.67;;
76566;SDS011;65428;53.194;6.132;2024-02-21T04:42:22;27.87;;;6.50;;
76566;SDS011;65428;53.194;6.132;2024-02-21T04:44:47;34.33;;;6.78;;
76566;SDS011;65428;53.194;6.132;2024-02-21T04:47:13;28.83;;;6.20;;
76566;SDS011;65428;53.194;6.132;2024-02-21T04:49:39;30.50;;;5.87;;
76566;SDS011;65428;53.194;6.132;2024-02-21T04:52:05;29.35;;;5.43;;
76566;SDS011;65428;53.194;6.132;2024-02-21T04:54:30;29.08;;;5.93;;
76566;SDS011;65428;53.194;6.132;2024-02-21T04:56:56;31.60;;;5.73;;
76566;SDS011;65428;53.194;6.132;2024-02-21T04:59:22;30.37;;;6.23;;
76566;SDS011;65428;53.194;6.132;2024-02-21T05:01:47;28.60;;;5.75;;
76566;SDS011;65428;53.194;6.132;2024-02-21T05:04:13;28.23;;;5.40;;
76566;SDS011;65428;53.194;6.132;2024-02-21T05:06:39;28.37;;;5.37;;
76566;SDS011;65428;53.194;6.132;2024-02-21T05:09:08;28.75;;;5.55;;
76566;SDS011;65428;53.194;6.132;2024-02-21T05:11:34;28.02;;;5.65;;
76566;SDS011;65428;53.194;6.132;2024-02-21T05:14:01;31.27;;;6.38;;
76566;SDS011;65428;53.194;6.132;2024-02-21T05:16:27;30.58;;;5.93;;
76566;SDS011;65428;53.194;6.132;2024-02-21T05:18:53;33.33;;;6.70;;
76566;SDS011;65428;53.194;6.132;2024-02-21T05:21:19;28.63;;;6.03;;
76566;SDS011;65428;53.194;6.132;2024-02-21T05:23:44;29.03;;;6.33;;
76566;SDS011;65428;53.194;6.132;2024-02-21T05:26:10;34.13;;;6.63;;
76566;SDS011;65428;53.194;6.132;2024-02-21T05:28:36;32.03;;;6.22;;
76566;SDS011;65428;53.194;6.132;2024-02-21T05:31:02;34.00;;;6.80;;
76566;SDS011;65428;53.194;6.132;2024-02-21T05:33:27;33.55;;;7.35;;
76566;SDS011;65428;53.194;6.132;2024-02-21T05:35:53;30.40;;;7.07;;
76566;SDS011;65428;53.194;6.132;2024-02-21T05:38:19;33.70;;;7.70;;
76566;SDS011;65428;53.194;6.132;2024-02-21T05:40:45;32.83;;;7.10;;
76566;SDS011;65428;53.194;6.132;2024-02-21T05:43:10;34.53;;;8.18;;
76566;SDS011;65428;53.194;6.132;2024-02-21T05:45:36;33.63;;;7.85;;
76566;SDS011;65428;53.194;6.132;2024-02-21T05:48:02;31.67;;;8.10;;
76566;SDS011;65428;53.194;6.132;2024-02-21T05:50:29;28.95;;;7.88;;
76566;SDS011;65428;53.194;6.132;2024-02-21T05:52:55;35.50;;;8.27;;
76566;SDS011;65428;53.194;6.132;2024-02-21T05:55:21;35.03;;;7.93;;
76566;SDS011;65428;53.194;6.132;2024-02-21T05:57:47;31.38;;;8.40;;
76566;SDS011;65428;53.194;6.132;2024-02-21T06:00:13;33.53;;;8.10;;
76566;SDS011;65428;53.194;6.132;2024-02-21T06:02:39;33.17;;;8.50;;
76566;SDS011;65428;53.194;6.132;2024-02-21T06:05:05;36.30;;;9.15;;
76566;SDS011;65428;53.194;6.132;2024-02-21T06:07:34;33.55;;;8.88;;
76566;SDS011;65428;53.194;6.132;2024-02-21T06:10:01;31.33;;;9.27;;
76566;SDS011;65428;53.194;6.132;2024-02-21T06:12:27;35.67;;;8.95;;
76566;SDS011;65428;53.194;6.132;2024-02-21T06:14:52;36.70;;;9.27;;
76566;SDS011;65428;53.194;6.132;2024-02-21T06:17:18;34.75;;;9.98;;
76566;SDS011;65428;53.194;6.132;2024-02-21T06:19:44;33.67;;;9.48;;
76566;SDS011;65428;53.194;6.132;2024-02-21T06:22:10;33.30;;;10.10;;
76566;SDS011;65428;53.194;6.132;2024-02-21T06:24:36;36.00;;;9.77;;
76566;SDS011;65428;53.194;6.132;2024-02-21T06:27:03;32.65;;;9.95;;
76566;SDS011;65428;53.194;6.132;2024-02-21T06:29:31;38.53;;;10.73;;
76566;SDS011;65428;53.194;6.132;2024-02-21T06:31:59;32.17;;;10.77;;
76566;SDS011;65428;53.194;6.132;2024-02-21T06:34:27;32.63;;;10.77;;
76566;SDS011;65428;53.194;6.132;2024-02-21T06:36:53;34.05;;;10.50;;
76566;SDS011;65428;53.194;6.132;2024-02-21T06:39:19;35.78;;;10.82;;
76566;SDS011;65428;53.194;6.132;2024-02-21T06:41:46;31.45;;;10.55;;
76566;SDS011;65428;53.194;6.132;2024-02-21T06:44:15;39.63;;;10.70;;
76566;SDS011;65428;53.194;6.132;2024-02-21T06:46:41;37.45;;;11.40;;
76566;SDS011;65428;53.194;6.132;2024-02-21T06:49:07;36.53;;;10.33;;
76566;SDS011;65428;53.194;6.132;2024-02-21T06:51:32;39.05;;;10.80;;
76566;SDS011;65428;53.194;6.132;2024-02-21T06:53:59;41.80;;;10.77;;
76566;SDS011;65428;53.194;6.132;2024-02-21T06:56:25;36.60;;;10.93;;
76566;SDS011;65428;53.194;6.132;2024-02-21T06:58:54;35.30;;;10.60;;
76566;SDS011;65428;53.194;6.132;2024-02-21T07:01:23;38.03;;;9.90;;
76566;SDS011;65428;53.194;6.132;2024-02-21T07:03:49;36.60;;;9.77;;
76566;SDS011;65428;53.194;6.132;2024-02-21T07:06:15;40.83;;;11.18;;
76566;SDS011;65428;53.194;6.132;2024-02-21T07:08:41;44.20;;;14.40;;
76566;SDS011;65428;53.194;6.132;2024-02-21T07:11:06;48.03;;;15.50;;
76566;SDS011;65428;53.194;6.132;2024-02-21T07:13:32;50.85;;;17.30;;
76566;SDS011;65428;53.194;6.132;2024-02-21T07:15:58;48.60;;;19.13;;
76566;SDS011;65428;53.194;6.132;2024-02-21T07:18:24;57.70;;;19.98;;
76566;SDS011;65428;53.194;6.132;2024-02-21T07:20:52;62.85;;;21.70;;
76566;SDS011;65428;53.194;6.132;2024-02-21T07:23:18;60.13;;;22.20;;
76566;SDS011;65428;53.194;6.132;2024-02-21T07:25:44;63.83;;;22.60;;
76566;SDS011;65428;53.194;6.132;2024-02-21T07:28:09;64.32;;;21.75;;
76566;SDS011;65428;53.194;6.132;2024-02-21T07:30:35;64.30;;;21.93;;
76566;SDS011;65428;53.194;6.132;2024-02-21T07:33:01;67.87;;;21.70;;
76566;SDS011;65428;53.194;6.132;2024-02-21T07:35:27;63.08;;;22.13;;
76566;SDS011;65428;53.194;6.132;2024-02-21T07:37:52;58.15;;;22.30;;
76566;SDS011;65428;53.194;6.132;2024-02-21T07:40:18;58.83;;;22.95;;
76566;SDS011;65428;53.194;6.132;2024-02-21T07:42:44;63.00;;;24.67;;
76566;SDS011;65428;53.194;6.132;2024-02-21T07:45:10;58.23;;;23.60;;
76566;SDS011;65428;53.194;6.132;2024-02-21T07:47:36;71.03;;;26.20;;
76566;SDS011;65428;53.194;6.132;2024-02-21T07:50:05;61.40;;;21.75;;
76566;SDS011;65428;53.194;6.132;2024-02-21T07:52:32;54.67;;;20.25;;
76566;SDS011;65428;53.194;6.132;2024-02-21T07:54:57;57.37;;;19.17;;
76566;SDS011;65428;53.194;6.132;2024-02-21T07:57:23;43.28;;;16.02;;
76566;SDS011;65428;53.194;6.132;2024-02-21T07:59:49;40.92;;;15.43;;
76566;SDS011;65428;53.194;6.132;2024-02-21T08:02:15;42.10;;;13.70;;
76566;SDS011;65428;53.194;6.132;2024-02-21T08:04:40;40.03;;;13.20;;
76566;SDS011;65428;53.194;6.132;2024-02-21T08:07:06;35.30;;;12.23;;
76566;SDS011;65428;53.194;6.132;2024-02-21T08:09:32;34.35;;;10.77;;
76566;SDS011;65428;53.194;6.132;2024-02-21T08:11:58;28.97;;;9.87;;
76566;SDS011;65428;53.194;6.132;2024-02-21T08:14:24;28.75;;;8.95;;
76566;SDS011;65428;53.194;6.132;2024-02-21T08:16:53;27.75;;;10.20;;
76566;SDS011;65428;53.194;6.132;2024-02-21T08:19:20;28.97;;;9.07;;
76566;SDS011;65428;53.194;6.132;2024-02-21T08:21:45;24.43;;;8.33;;
76566;SDS011;65428;53.194;6.132;2024-02-21T08:24:12;24.48;;;9.02;;
76566;SDS011;65428;53.194;6.132;2024-02-21T08:26:43;23.73;;;8.57;;
76566;SDS011;65428;53.194;6.132;2024-02-21T08:29:12;22.33;;;8.82;;
76566;SDS011;65428;53.194;6.132;2024-02-21T08:31:38;29.43;;;9.57;;
76566;SDS011;65428;53.194;6.132;2024-02-21T08:34:03;22.73;;;9.40;;
76566;SDS011;65428;53.194;6.132;2024-02-21T08:36:29;26.45;;;10.00;;
76566;SDS011;65428;53.194;6.132;2024-02-21T08:38:55;24.63;;;10.23;;
76566;SDS011;65428;53.194;6.132;2024-02-21T08:41:22;25.95;;;10.90;;
76566;SDS011;65428;53.194;6.132;2024-02-21T08:43:49;22.20;;;10.10;;
76566;SDS011;65428;53.194;6.132;2024-02-21T08:46:16;30.55;;;12.35;;
76566;SDS011;65428;53.194;6.132;2024-02-21T08:48:42;26.90;;;12.70;;
76566;SDS011;65428;53.194;6.132;2024-02-21T08:51:11;32.23;;;14.20;;
76566;SDS011;65428;53.194;6.132;2024-02-21T08:53:37;32.17;;;15.43;;
76566;SDS011;65428;53.194;6.132;2024-02-21T08:56:03;32.83;;;16.67;;
76566;SDS011;65428;53.194;6.132;2024-02-21T08:58:29;32.03;;;18.38;;
76566;SDS011;65428;53.194;6.132;2024-02-21T09:00:55;32.90;;;18.97;;
76566;SDS011;65428;53.194;6.132;2024-02-21T09:03:22;32.70;;;20.00;;
76566;SDS011;65428;53.194;6.132;2024-02-21T09:05:47;34.60;;;21.73;;
76566;SDS011;65428;53.194;6.132;2024-02-21T09:08:13;34.40;;;22.60;;
76566;SDS011;65428;53.194;6.132;2024-02-21T09:10:39;34.53;;;22.63;;
76566;SDS011;65428;53.194;6.132;2024-02-21T09:13:05;34.90;;;23.45;;
76566;SDS011;65428;53.194;6.132;2024-02-21T09:15:33;35.20;;;23.50;;
76566;SDS011;65428;53.194;6.132;2024-02-21T09:17:58;33.83;;;24.17;;
76566;SDS011;65428;53.194;6.132;2024-02-21T09:20:24;37.40;;;25.17;;
76566;SDS011;65428;53.194;6.132;2024-02-21T09:22:50;31.83;;;23.75;;
76566;SDS011;65428;53.194;6.132;2024-02-21T09:25:17;35.72;;;24.23;;
76566;SDS011;65428;53.194;6.132;2024-02-21T09:27:44;32.63;;;24.75;;
76566;SDS011;65428;53.194;6.132;2024-02-21T09:30:10;35.28;;;25.17;;
76566;SDS011;65428;53.194;6.132;2024-02-21T09:32:36;36.60;;;25.45;;
76566;SDS011;65428;53.194;6.132;2024-02-21T09:35:03;34.55;;;24.48;;
76566;SDS011;65428;53.194;6.132;2024-02-21T09:37:30;30.25;;;23.15;;
76566;SDS011;65428;53.194;6.132;2024-02-21T09:39:56;33.97;;;24.48;;
76566;SDS011;65428;53.194;6.132;2024-02-21T09:42:22;34.60;;;24.00;;
76566;SDS011;65428;53.194;6.132;2024-02-21T09:45:25;31.70;;;22.38;;
76566;SDS011;65428;53.194;6.132;2024-02-21T09:50:38;28.50;;;22.00;;
76566;SDS011;65428;53.194;6.132;2024-02-21T09:53:06;28.92;;;22.52;;
76566;SDS011;65428;53.194;6.132;2024-02-21T09:55:36;31.73;;;21.98;;
76566;SDS011;65428;53.194;6.132;2024-02-21T09:58:05;29.30;;;22.27;;
76566;SDS011;65428;53.194;6.132;2024-02-21T10:00:31;28.10;;;21.03;;
76566;SDS011;65428;53.194;6.132;2024-02-21T10:02:58;27.33;;;22.38;;
76566;SDS011;65428;53.194;6.132;2024-02-21T10:05:24;26.93;;;21.20;;
76566;SDS011;65428;53.194;6.132;2024-02-21T10:07:51;29.02;;;21.10;;
76566;SDS011;65428;53.194;6.132;2024-02-21T10:10:19;24.55;;;19.23;;
76566;SDS011;65428;53.194;6.132;2024-02-21T10:12:50;25.60;;;20.63;;
76566;SDS011;65428;53.194;6.132;2024-02-21T10:15:19;25.17;;;19.58;;
76566;SDS011;65428;53.194;6.132;2024-02-21T10:17:49;27.47;;;19.77;;
76566;SDS011;65428;53.194;6.132;2024-02-21T10:20:25;23.05;;;19.17;;
76566;SDS011;65428;53.194;6.132;2024-02-21T10:23:00;22.15;;;18.73;;
76566;SDS011;65428;53.194;6.132;2024-02-21T10:25:33;25.42;;;18.63;;
76566;SDS011;65428;53.194;6.132;2024-02-21T10:28:00;22.27;;;17.77;;
76566;SDS011;65428;53.194;6.132;2024-02-21T10:30:27;22.70;;;16.70;;
76566;SDS011;65428;53.194;6.132;2024-02-21T10:32:53;28.17;;;17.45;;
76566;SDS011;65428;53.194;6.132;2024-02-21T10:35:29;23.33;;;17.52;;
76566;SDS011;65428;53.194;6.132;2024-02-21T10:37:58;23.95;;;17.60;;
76566;SDS011;65428;53.194;6.132;2024-02-21T10:40:28;24.48;;;17.25;;
76566;SDS011;65428;53.194;6.132;2024-02-21T10:42:57;21.10;;;15.80;;
76566;SDS011;65428;53.194;6.132;2024-02-21T10:45:31;20.55;;;15.95;;
76566;SDS011;65428;53.194;6.132;2024-02-21T10:53:42;22.80;;;16.15;;
76566;SDS011;65428;53.194;6.132;2024-02-21T10:56:31;22.50;;;16.73;;
76566;SDS011;65428;53.194;6.132;2024-02-21T10:59:02;20.85;;;15.82;;
76566;SDS011;65428;53.194;6.132;2024-02-21T11:01:29;20.53;;;16.43;;
76566;SDS011;65428;53.194;6.132;2024-02-21T11:04:04;21.67;;;15.73;;
76566;SDS011;65428;53.194;6.132;2024-02-21T11:06:32;19.17;;;15.30;;
76566;SDS011;65428;53.194;6.132;2024-02-21T11:11:45;22.08;;;17.23;;
76566;SDS011;65428;53.194;6.132;2024-02-21T11:14:17;22.17;;;18.03;;
76566;SDS011;65428;53.194;6.132;2024-02-21T11:16:44;23.20;;;18.73;;
76566;SDS011;65428;53.194;6.132;2024-02-21T11:19:18;22.00;;;17.73;;
76566;SDS011;65428;53.194;6.132;2024-02-21T11:21:46;23.00;;;18.02;;
76566;SDS011;65428;53.194;6.132;2024-02-21T11:24:13;23.25;;;18.90;;
76566;SDS011;65428;53.194;6.132;2024-02-21T11:26:39;23.77;;;18.70;;
76566;SDS011;65428;53.194;6.132;2024-02-21T11:29:08;23.58;;;18.83;;
76566;SDS011;65428;53.194;6.132;2024-02-21T11:31:41;23.83;;;19.15;;
76566;SDS011;65428;53.194;6.132;2024-02-21T11:34:09;21.87;;;18.47;;
76566;SDS011;65428;53.194;6.132;2024-02-21T11:36:36;24.25;;;18.98;;
76566;SDS011;65428;53.194;6.132;2024-02-21T11:39:12;22.10;;;17.73;;
76566;SDS011;65428;53.194;6.132;2024-02-21T11:41:37;20.73;;;17.23;;
76566;SDS011;65428;53.194;6.132;2024-02-21T11:44:03;23.77;;;17.73;;
76566;SDS011;65428;53.194;6.132;2024-02-21T11:46:29;21.48;;;18.10;;
76566;SDS011;65428;53.194;6.132;2024-02-21T11:48:55;23.23;;;18.92;;
76566;SDS011;65428;53.194;6.132;2024-02-21T11:51:30;24.13;;;18.00;;
76566;SDS011;65428;53.194;6.132;2024-02-21T11:53:56;22.55;;;18.15;;
76566;SDS011;65428;53.194;6.132;2024-02-21T11:56:22;20.75;;;17.63;;
76566;SDS011;65428;53.194;6.132;2024-02-21T11:58:51;22.17;;;18.23;;
76566;SDS011;65428;53.194;6.132;2024-02-21T12:01:16;23.83;;;18.17;;
76566;SDS011;65428;53.194;6.132;2024-02-21T12:03:42;22.87;;;18.23;;
76566;SDS011;65428;53.194;6.132;2024-02-21T12:06:14;23.05;;;17.80;;
76566;SDS011;65428;53.194;6.132;2024-02-21T12:08:44;22.88;;;17.55;;
76566;SDS011;65428;53.194;6.132;2024-02-21T12:11:20;21.90;;;17.83;;
76566;SDS011;65428;53.194;6.132;2024-02-21T12:13:47;19.73;;;16.10;;
76566;SDS011;65428;53.194;6.132;2024-02-21T12:16:24;18.50;;;15.63;;
76566;SDS011;65428;53.194;6.132;2024-02-21T12:18:52;19.80;;;15.50;;
76566;SDS011;65428;53.194;6.132;2024-02-21T12:21:30;18.95;;;14.65;;
76566;SDS011;65428;53.194;6.132;2024-02-21T12:23:58;19.77;;;15.15;;
76566;SDS011;65428;53.194;6.132;2024-02-21T12:26:25;18.35;;;14.60;;
76566;SDS011;65428;53.194;6.132;2024-02-21T12:28:51;17.58;;;14.55;;
76566;SDS011;65428;53.194;6.132;2024-02-21T12:31:18;16.13;;;13.77;;
76566;SDS011;65428;53.194;6.132;2024-02-21T12:33:44;16.73;;;13.55;;
76566;SDS011;65428;53.194;6.132;2024-02-21T12:36:10;15.90;;;13.20;;
76566;SDS011;65428;53.194;6.132;2024-02-21T12:38:36;16.58;;;12.57;;
76566;SDS011;65428;53.194;6.132;2024-02-21T12:41:02;16.30;;;12.35;;
76566;SDS011;65428;53.194;6.132;2024-02-21T12:43:28;15.70;;;12.27;;
76566;SDS011;65428;53.194;6.132;2024-02-21T12:45:54;16.00;;;11.77;;
76566;SDS011;65428;53.194;6.132;2024-02-21T12:48:19;15.50;;;11.15;;
76566;SDS011;65428;53.194;6.132;2024-02-21T12:50:47;14.70;;;10.88;;
76566;SDS011;65428;53.194;6.132;2024-02-21T12:53:17;12.85;;;10.40;;
76566;SDS011;65428;53.194;6.132;2024-02-21T12:55:48;14.43;;;10.05;;
76566;SDS011;65428;53.194;6.132;2024-02-21T12:58:14;12.82;;;9.13;;
76566;SDS011;65428;53.194;6.132;2024-02-21T13:00:40;12.80;;;9.23;;
76566;SDS011;65428;53.194;6.132;2024-02-21T13:03:06;11.93;;;8.43;;
76566;SDS011;65428;53.194;6.132;2024-02-21T13:05:32;11.50;;;8.93;;
76566;SDS011;65428;53.194;6.132;2024-02-21T13:07:58;12.23;;;9.48;;
76566;SDS011;65428;53.194;6.132;2024-02-21T13:10:24;12.18;;;9.10;;
76566;SDS011;65428;53.194;6.132;2024-02-21T13:12:50;13.45;;;9.32;;
76566;SDS011;65428;53.194;6.132;2024-02-21T13:15:16;13.00;;;8.90;;
76566;SDS011;65428;53.194;6.132;2024-02-21T13:17:46;14.80;;;9.73;;
76566;SDS011;65428;53.194;6.132;2024-02-21T13:20:12;11.77;;;9.02;;
76566;SDS011;65428;53.194;6.132;2024-02-21T13:22:38;11.48;;;8.38;;
76566;SDS011;65428;53.194;6.132;2024-02-21T13:25:04;11.93;;;8.03;;
76566;SDS011;65428;53.194;6.132;2024-02-21T13:27:32;11.65;;;8.25;;
76566;SDS011;65428;53.194;6.132;2024-02-21T13:29:58;10.88;;;7.80;;
76566;SDS011;65428;53.194;6.132;2024-02-21T13:32:25;9.20;;;7.22;;
76566;SDS011;65428;53.194;6.132;2024-02-21T13:34:51;9.45;;;6.57;;
76566;SDS011;65428;53.194;6.132;2024-02-21T13:37:17;9.75;;;7.03;;
76566;SDS011;65428;53.194;6.132;2024-02-21T13:39:43;8.48;;;6.53;;
76566;SDS011;65428;53.194;6.132;2024-02-21T13:42:09;8.23;;;6.15;;
76566;SDS011;65428;53.194;6.132;2024-02-21T13:44:35;7.82;;;6.05;;
76566;SDS011;65428;53.194;6.132;2024-02-21T13:47:02;8.30;;;6.13;;
76566;SDS011;65428;53.194;6.132;2024-02-21T13:49:28;7.40;;;5.83;;
76566;SDS011;65428;53.194;6.132;2024-02-21T13:51:55;8.07;;;6.28;;
76566;SDS011;65428;53.194;6.132;2024-02-21T13:54:21;7.78;;;6.28;;
76566;SDS011;65428;53.194;6.132;2024-02-21T13:56:46;7.25;;;6.15;;
76566;SDS011;65428;53.194;6.132;2024-02-21T13:59:12;8.10;;;6.60;;
76566;SDS011;65428;53.194;6.132;2024-02-21T14:01:38;6.78;;;6.00;;
76566;SDS011;65428;53.194;6.132;2024-02-21T14:04:04;7.68;;;6.68;;
76566;SDS011;65428;53.194;6.132;2024-02-21T14:06:30;7.63;;;6.47;;
76566;SDS011;65428;53.194;6.132;2024-02-21T14:08:56;7.40;;;6.40;;
76566;SDS011;65428;53.194;6.132;2024-02-21T14:11:22;8.80;;;6.60;;
76566;SDS011;65428;53.194;6.132;2024-02-21T14:13:48;7.70;;;6.75;;
76566;SDS011;65428;53.194;6.132;2024-02-21T14:16:14;7.80;;;6.30;;
76566;SDS011;65428;53.194;6.132;2024-02-21T14:18:40;7.80;;;7.00;;
76566;SDS011;65428;53.194;6.132;2024-02-21T14:21:07;9.68;;;7.25;;
76566;SDS011;65428;53.194;6.132;2024-02-21T14:23:35;8.55;;;7.03;;
76566;SDS011;65428;53.194;6.132;2024-02-21T14:26:04;9.30;;;7.32;;
76566;SDS011;65428;53.194;6.132;2024-02-21T14:28:31;9.05;;;7.00;;
76566;SDS011;65428;53.194;6.132;2024-02-21T14:31:00;9.43;;;6.80;;
76566;SDS011;65428;53.194;6.132;2024-02-21T14:33:27;9.45;;;7.80;;
76566;SDS011;65428;53.194;6.132;2024-02-21T14:35:52;9.40;;;7.20;;
76566;SDS011;65428;53.194;6.132;2024-02-21T14:38:21;9.68;;;7.05;;
76566;SDS011;65428;53.194;6.132;2024-02-21T14:40:47;9.13;;;7.53;;
76566;SDS011;65428;53.194;6.132;2024-02-21T14:43:13;8.65;;;6.93;;